Time;durP1;ratioP1;P1;durP2;ratioP2;P2;SDS_P1;SDS_P2;PMS_P1;PMS_P2;Temp;Humidity;BMP_temperature;BMP_pressure;BME280_temperature;BME280_humidity;BME280_pressure;Samples;Min_cycle;Max_cycle;Signal;HPM_P1;HPM_P2
2022/02/03 00:00:31;;;;;;;;;;;9.50;99.90;;;8.03;100.00;101027.31;5012828;28;20286;-87
2022/02/03 00:03:14;;;;;;;;;;;9.50;99.90;;;7.99;100.00;101033.19;5028929;28;19940;-86
2022/02/03 00:05:47;;;;;;;;;;;9.50;99.90;;;7.97;100.00;101024.34;5043563;28;19940;-86
2022/02/03 00:08:24;;;;;;;;;;;9.60;99.90;;;7.99;100.00;101015.06;5048425;28;19931;-87
2022/02/03 00:11:19;;;;;;;;;;;9.60;99.90;;;8.01;100.00;101020.31;5050715;28;19939;-87
2022/02/03 00:16:57;;;;;;;;;;;9.60;99.90;;;8.02;100.00;101022.88;5031291;28;20285;-87
2022/02/03 00:22:15;;;;;;;;;;;9.60;99.90;;;8.07;100.00;101011.56;5032473;28;20396;-87
2022/02/03 00:24:59;;;;;;;;;;;9.70;99.90;;;8.10;100.00;101005.00;5035279;28;19925;-87
2022/02/03 00:27:46;;;;;;;;;;;9.60;99.90;;;8.13;100.00;101008.25;5043501;28;19999;-87
2022/02/03 00:30:17;;;;;;;;;;;9.60;99.90;;;8.15;100.00;101002.69;5043554;28;19925;-87
2022/02/03 00:32:54;;;;;;;;;;;9.60;99.90;;;8.13;100.00;101005.53;5038405;28;19933;-87
2022/02/03 00:35:43;;;;;;;;;;;9.60;99.90;;;8.12;100.00;101002.97;5052235;28;20393;-86
2022/02/03 00:38:41;;;;;;;;;;;9.60;99.90;;;8.09;100.00;101004.16;5050190;28;19964;-87
2022/02/03 00:49:32;;;;;;;;;;;9.70;99.90;;;8.18;100.00;100991.50;5048682;28;19954;-86
2022/02/03 00:52:00;;;;;;;;;;;9.80;99.90;;;8.16;100.00;100994.38;5051940;28;20010;-86
2022/02/03 00:54:30;;;;;;;;;;;9.70;99.90;;;8.17;100.00;100989.81;5033478;28;19964;-87
2022/02/03 00:57:02;;;;;;;;;;;9.70;99.90;;;8.15;100.00;100994.56;5031991;28;19932;-87
2022/02/03 00:59:31;;;;;;;;;;;9.70;99.90;;;8.16;100.00;100980.81;5034020;28;19936;-87
2022/02/03 01:02:00;;;;;;;;;;;9.70;99.90;;;8.13;100.00;100983.84;5031830;28;19943;-87
2022/02/03 01:04:30;;;;;;;;;;;9.70;99.90;;;8.15;100.00;100981.84;5049508;28;20421;-87
2022/02/03 01:06:59;;;;;;;;;;;9.70;99.90;;;8.19;100.00;100976.94;5047249;28;19929;-87
2022/02/03 01:09:27;;;;;;;;;;;9.80;99.90;;;8.20;100.00;100987.63;5048012;28;20411;-87
2022/02/03 01:12:03;;;;;;;;;;;9.80;99.90;;;8.18;100.00;100976.06;5051257;28;20021;-87
2022/02/03 01:14:42;;;;;;;;;;;9.80;99.90;;;8.27;100.00;100970.75;5033991;28;19936;-86
2022/02/03 01:17:24;;;;;;;;;;;9.80;99.90;;;8.23;100.00;100970.19;5031444;28;20381;-87
2022/02/03 01:37:10;;;;;;;;;;;9.80;99.90;;;8.25;100.00;100968.19;5044238;28;19929;-87
2022/02/03 01:45:21;;;;;;;;;;;9.80;99.90;;;8.20;100.00;100962.38;5008794;28;19929;-87
2022/02/03 01:47:57;;;;;;;;;;;9.80;99.90;;;8.18;100.00;100965.22;5034916;28;19975;-87
2022/02/03 01:53:13;;;;;;;;;;;9.80;99.90;;;8.21;100.00;100970.34;5045103;28;20019;-87
2022/02/03 01:55:44;;;;;;;;;;;9.80;99.90;;;8.23;100.00;100962.91;5050548;28;19960;-87
2022/02/03 01:58:14;;;;;;;;;;;9.80;99.90;;;8.27;100.00;100962.59;5032293;28;19980;-87
2022/02/03 02:00:42;;;;;;;;;;;9.80;99.90;;;8.30;100.00;100963.13;5030711;28;19963;-87
2022/02/03 02:03:17;;;;;;;;;;;9.80;99.90;;;8.27;100.00;100962.59;5047387;28;19957;-87
2022/02/03 02:06:07;;;;;;;;;;;9.80;99.90;;;8.28;100.00;100956.16;5050584;28;20011;-87
2022/02/03 02:08:41;;;;;;;;;;;9.80;99.90;;;8.20;100.00;100963.22;5053539;22;19963;-83
2022/02/03 02:11:28;;;;;;;;;;;9.80;99.90;;;8.20;100.00;100955.06;5070257;28;19924;-83
2022/02/03 02:14:13;;;;;;;;;;;9.90;99.90;;;8.24;100.00;100952.91;5050529;28;20381;-83
2022/02/03 02:17:30;;;;;;;;;;;9.90;99.90;;;8.28;100.00;100950.72;5053391;28;19968;-83
2022/02/03 02:20:05;;;;;;;;;;;9.90;99.90;;;8.26;100.00;100944.63;5053540;28;19925;-83
2022/02/03 02:37:16;;;;;;;;;;;9.90;99.90;;;8.25;100.00;100919.38;5048883;28;19975;-83
2022/02/03 02:40:28;;;;;;;;;;;9.90;99.90;;;8.29;100.00;100915.31;5031392;28;19936;-83
2022/02/03 02:43:00;;;;;;;;;;;9.90;99.90;;;8.23;100.00;100918.69;5041510;28;19932;-83
2022/02/03 02:45:36;;;;;;;;;;;9.90;99.90;;;8.25;100.00;100915.81;5049757;28;19944;-83
2022/02/03 02:48:08;;;;;;;;;;;9.90;99.90;;;8.21;100.00;100899.00;5049586;28;19929;-83
2022/02/03 02:50:45;;;;;;;;;;;9.90;99.90;;;8.19;100.00;100901.03;5049492;28;19928;-84
2022/02/03 02:53:26;;;;;;;;;;;9.90;99.90;;;8.28;100.00;100900.09;5049820;28;19974;-84
2022/02/03 02:56:12;;;;;;;;;;;9.90;99.90;;;8.25;100.00;100896.84;5049403;28;19930;-83
2022/02/03 03:02:05;;;;;;;;;;;9.90;99.90;;;8.14;100.00;100898.78;5047837;28;19936;-83
2022/02/03 03:30:04;;;;;;;;;;;9.80;99.90;;;8.21;100.00;100870.03;5035897;28;19933;-84
2022/02/03 03:32:51;;;;;;;;;;;9.80;99.90;;;8.25;100.00;100872.44;5049180;28;19950;-83
2022/02/03 03:35:33;;;;;;;;;;;9.80;99.90;;;8.29;100.00;100884.66;5048119;28;19932;-83
2022/02/03 03:38:02;;;;;;;;;;;9.80;99.90;;;8.24;100.00;100879.69;5049014;28;19936;-84
2022/02/03 03:40:32;;;;;;;;;;;9.80;99.90;;;8.20;100.00;100884.59;5048789;28;20019;-83
2022/02/03 03:43:04;;;;;;;;;;;9.80;99.90;;;8.22;100.00;100873.59;5049778;28;20351;-83
2022/02/03 03:45:32;;;;;;;;;;;9.80;99.90;;;8.17;100.00;100876.78;5053371;28;19924;-86
2022/02/03 03:48:06;;;;;;;;;;;9.90;99.90;;;8.19;100.00;100869.34;5035001;28;20308;-85
2022/02/03 03:50:35;;;;;;;;;;;9.80;99.90;;;8.18;100.00;100867.63;5053408;28;19960;-85
2022/02/03 03:53:11;;;;;;;;;;;9.80;99.90;;;8.17;100.00;100855.09;5053086;28;19929;-85
2022/02/03 03:55:48;;;;;;;;;;;9.80;99.90;;;8.11;100.00;100850.34;5052919;28;19971;-86
2022/02/03 03:58:37;;;;;;;;;;;9.80;99.90;;;8.16;100.00;100845.25;5052487;28;19971;-85
2022/02/03 04:56:15;;;;;;;;;;;9.70;99.90;;;7.94;100.00;100802.44;5049930;28;19929;-85
2022/02/03 04:59:29;;;;;;;;;;;9.80;99.90;;;7.95;100.00;100805.00;5051473;28;19929;-86
2022/02/03 05:02:22;;;;;;;;;;;9.70;99.90;;;7.91;100.00;100802.78;5051585;28;19975;-93
2022/02/03 05:05:11;;;;;;;;;;;9.70;99.90;;;7.92;100.00;100805.31;5051563;28;19928;-82
2022/02/03 05:08:05;;;;;;;;;;;9.70;99.90;;;7.89;100.00;100796.66;5051773;28;19925;-82
2022/02/03 05:11:00;;;;;;;;;;;9.70;99.90;;;7.87;100.00;100798.69;5051186;28;20308;-82
2022/02/03 05:13:48;;;;;;;;;;;9.70;99.90;;;7.77;100.00;100788.81;5051348;28;19929;-82
2022/02/03 05:20:09;;;;;;;;;;;9.60;99.90;;;7.74;100.00;100791.81;5032183;28;19929;-83
2022/02/03 05:26:11;;;;;;;;;;;9.60;99.90;;;7.78;100.00;100773.38;5050986;28;19950;-84
2022/02/03 05:32:24;;;;;;;;;;;9.60;99.90;;;7.80;100.00;100777.63;5051327;28;19935;-83
2022/02/03 05:35:20;;;;;;;;;;;9.60;99.90;;;7.76;100.00;100770.00;5047773;28;19928;-84
2022/02/03 05:44:06;;;;;;;;;;;9.60;99.90;;;7.80;100.00;100771.38;5050806;28;20067;-83
2022/02/03 05:47:02;;;;;;;;;;;9.60;99.90;;;7.74;100.00;100778.28;5050660;28;19928;-83
2022/02/03 06:00:54;;;;;;;;;;;9.50;99.90;;;7.82;100.00;100756.66;5050185;28;20016;-84
2022/02/03 06:01:22;;;;;;;;;;;9.50;99.90;;;7.69;100.00;100753.53;5030951;28;19929;-81
2022/02/03 06:09:35;;;;;;;;;;;9.50;99.90;;;7.57;100.00;100746.69;5050172;28;19950;-83
2022/02/03 06:12:30;;;;;;;;;;;9.50;99.90;;;7.55;100.00;100749.53;5047101;28;19978;-83
2022/02/03 06:15:05;;;;;;;;;;;9.50;99.90;;;7.59;100.00;100748.22;5045287;28;19948;-83
2022/02/03 06:20:40;;;;;;;;;;;9.40;99.90;;;7.56;100.00;100748.53;5047450;28;20436;-85
2022/02/03 06:21:15;;;;;;;;;;;9.50;99.90;;;7.57;100.00;100744.81;5043862;28;19936;-83
2022/02/03 06:23:47;;;;;;;;;;;9.50;99.90;;;7.48;100.00;100737.63;5028281;28;20393;-84
2022/02/03 06:29:01;;;;;;;;;;;9.40;99.90;;;7.55;100.00;100735.16;5044851;28;19987;-85
2022/02/03 06:31:30;;;;;;;;;;;9.40;99.90;;;7.57;100.00;100739.41;5045013;28;19925;-86
2022/02/03 06:33:57;;;;;;;;;;;9.40;99.90;;;7.52;100.00;100749.00;5044473;28;19925;-85
2022/02/03 06:36:26;;;;;;;;;;;9.40;99.90;;;7.52;100.00;100735.47;5030314;28;20019;-84
2022/02/03 06:38:53;;;;;;;;;;;9.40;99.90;;;7.48;100.00;100750.34;5039576;28;19929;-85
2022/02/03 06:41:20;;;;;;;;;;;9.40;99.90;;;7.49;100.00;100746.63;5049084;28;19979;-85
2022/02/03 06:43:47;;;;;;;;;;;9.40;99.90;;;7.41;100.00;100750.97;5032563;28;20371;-85
2022/02/03 06:46:15;;;;;;;;;;;9.30;99.90;;;7.46;100.00;100746.94;5050006;28;19928;-85
2022/02/03 06:48:48;;;;;;;;;;;9.30;99.90;;;7.39;100.00;100739.47;5031391;28;19928;-85
2022/02/03 06:51:22;;;;;;;;;;;9.40;99.90;;;7.31;100.00;100731.28;5031219;28;19935;-85
2022/02/03 06:53:55;;;;;;;;;;;9.40;99.90;;;7.44;100.00;100729.00;5048356;28;19928;-85
2022/02/03 06:59:13;;;;;;;;;;;9.30;99.90;;;7.54;100.00;100723.47;5048992;28;19928;-85
2022/02/03 07:01:43;;;;;;;;;;;9.30;99.90;;;7.58;100.00;100722.16;5031743;28;20693;-85
2022/02/03 07:04:21;;;;;;;;;;;9.30;99.90;;;7.53;100.00;100721.78;5048126;28;20385;-85
2022/02/03 07:06:51;;;;;;;;;;;9.30;99.90;;;7.47;100.00;100729.69;5049179;28;19931;-85
2022/02/03 07:09:20;;;;;;;;;;;9.30;99.90;;;7.48;100.00;100712.44;5049028;28;19925;-85
2022/02/03 07:11:47;;;;;;;;;;;9.30;99.90;;;7.41;100.00;100712.22;5047265;28;19931;-85
2022/02/03 07:14:14;;;;;;;;;;;9.30;99.90;;;7.49;100.00;100719.56;5049279;28;20514;-86
2022/02/03 07:16:48;;;;;;;;;;;9.30;99.90;;;7.46;100.00;100718.00;5049585;28;20365;-85
2022/02/03 07:19:16;;;;;;;;;;;9.30;99.90;;;7.41;100.00;100718.47;5030849;28;20335;-85
2022/02/03 07:21:47;;;;;;;;;;;9.30;99.90;;;7.41;100.00;100707.66;5046896;28;20018;-85
2022/02/03 07:24:14;;;;;;;;;;;9.30;99.90;;;7.44;100.00;100712.75;5049294;28;20456;-85
2022/02/03 07:26:42;;;;;;;;;;;9.30;99.90;;;7.47;100.00;100718.88;5049383;28;20432;-85
2022/02/03 07:29:11;;;;;;;;;;;9.30;99.90;;;7.40;100.00;100714.06;5047824;28;20135;-85
2022/02/03 07:31:39;;;;;;;;;;;9.30;99.90;;;7.39;100.00;100698.00;5044539;28;20300;-85
2022/02/03 07:34:10;;;;;;;;;;;9.30;99.90;;;7.41;100.00;100699.53;5048777;28;20309;-85
2022/02/03 07:36:38;;;;;;;;;;;9.30;99.90;;;7.34;100.00;100692.22;5049105;28;19940;-84
2022/02/03 07:39:06;;;;;;;;;;;9.30;99.90;;;7.35;100.00;100678.50;5048415;28;19925;-85
2022/02/03 07:41:33;;;;;;;;;;;9.30;99.90;;;7.46;100.00;100671.97;5044410;28;19991;-85
2022/02/03 07:44:03;;;;;;;;;;;9.30;99.90;;;7.49;100.00;100670.81;5046967;28;19967;-85
2022/02/03 07:46:31;;;;;;;;;;;9.30;99.90;;;7.43;100.00;100675.84;5044724;28;19929;-85
2022/02/03 07:49:00;;;;;;;;;;;9.30;99.90;;;7.51;100.00;100679.63;5045028;28;19964;-83
2022/02/03 07:51:29;;;;;;;;;;;9.30;99.90;;;7.45;100.00;100678.41;5038656;28;19929;-86
2022/02/03 07:53:58;;;;;;;;;;;9.30;99.90;;;7.47;100.00;100686.38;5026084;28;19941;-85
2022/02/03 07:56:25;;;;;;;;;;;9.30;99.90;;;7.42;100.00;100671.47;5049048;28;20023;-84
2022/02/03 07:58:52;;;;;;;;;;;9.30;99.90;;;7.48;100.00;100679.94;5046285;28;19968;-85
2022/02/03 08:01:21;;;;;;;;;;;9.30;99.90;;;7.43;100.00;100681.25;5044278;28;20018;-85
2022/02/03 08:03:49;;;;;;;;;;;9.50;99.90;;;7.46;100.00;100681.94;5030271;28;20037;-84
2022/02/03 08:06:23;;;;;;;;;;;9.30;99.90;;;7.46;100.00;100677.38;5020369;28;19936;-85
2022/02/03 08:08:54;;;;;;;;;;;9.30;99.90;;;7.52;100.00;100694.84;5063709;22;19936;-84
2022/02/03 08:11:26;;;;;;;;;;;9.30;99.90;;;7.57;100.00;100692.50;5066987;28;19928;-84
2022/02/03 08:13:57;;;;;;;;;;;9.30;99.90;;;7.51;100.00;100674.19;5066633;28;20273;-84
2022/02/03 08:16:30;;;;;;;;;;;9.30;99.90;;;7.59;100.00;100671.53;5068531;28;20304;-84
2022/02/03 08:19:04;;;;;;;;;;;9.30;99.90;;;7.52;100.00;100663.22;5046844;28;19933;-84
2022/02/03 08:21:34;;;;;;;;;;;9.30;99.90;;;7.47;100.00;100653.88;5058171;28;20341;-85
2022/02/03 08:26:52;;;;;;;;;;;9.30;99.90;;;7.54;100.00;100627.81;5059875;28;19925;-85
2022/02/03 08:32:07;;;;;;;;;;;9.30;99.90;;;7.58;100.00;100626.50;5029706;28;20407;-85
2022/02/03 08:34:43;;;;;;;;;;;9.30;99.90;;;7.58;100.00;100627.34;5070909;28;19929;-85
2022/02/03 08:37:10;;;;;;;;;;;9.30;99.90;;;7.47;100.00;100619.50;5070986;28;20027;-85
2022/02/03 08:39:50;;;;;;;;;;;9.30;99.90;;;7.46;100.00;100612.38;5070192;28;19940;-85
2022/02/03 08:42:17;;;;;;;;;;;9.40;99.90;;;7.47;100.00;100613.25;5067723;28;19928;-85
2022/02/03 08:44:44;;;;;;;;;;;9.30;99.90;;;7.38;100.00;100615.91;5066829;28;19932;-85
2022/02/03 08:47:12;;;;;;;;;;;9.30;99.90;;;7.40;100.00;100624.72;5064255;28;19956;-84
2022/02/03 08:49:43;;;;;;;;;;;9.30;99.90;;;7.50;100.00;100624.63;5062405;28;19963;-85
2022/02/03 08:52:17;;;;;;;;;;;9.30;99.90;;;7.55;100.00;100632.25;5065116;28;19982;-85
2022/02/03 08:54:56;;;;;;;;;;;9.30;99.90;;;7.55;100.00;100632.25;5068247;28;20019;-85
2022/02/03 08:57:35;;;;;;;;;;;9.30;99.90;;;7.58;100.00;100631.94;5057182;28;19929;-85
2022/02/03 09:36:37;;;;;;;;;;;9.40;99.90;;;7.40;100.00;100616.59;5035955;28;19967;-88
2022/02/03 09:39:16;;;;;;;;;;;9.30;99.90;;;7.46;100.00;100614.25;5050127;28;19960;-89
2022/02/03 09:53:13;;;;;;;;;;;9.30;99.90;;;7.48;100.00;100585.16;5045057;28;19947;-89
2022/02/03 09:58:24;;;;;;;;;;;9.40;99.90;;;7.48;100.00;100587.84;5048689;28;20420;-89
2022/02/03 10:01:05;;;;;;;;;;;9.40;99.90;;;7.47;100.00;100592.44;5049982;28;19933;-88
2022/02/03 10:03:38;;;;;;;;;;;9.40;99.90;;;7.49;100.00;100584.16;5051276;28;20314;-88
2022/02/03 10:06:14;;;;;;;;;;;9.40;99.90;;;7.48;100.00;100579.72;5047057;28;20817;-89
2022/02/03 10:08:49;;;;;;;;;;;9.40;99.90;;;7.48;100.00;100582.44;5050117;28;19932;-85
2022/02/03 10:11:18;;;;;;;;;;;9.40;99.90;;;7.55;100.00;100564.53;5046944;28;19932;-84
2022/02/03 10:13:47;;;;;;;;;;;9.40;99.90;;;7.55;100.00;100562.66;5048227;28;19999;-84
2022/02/03 10:16:15;;;;;;;;;;;9.40;99.90;;;7.57;100.00;100565.22;5046621;28;20041;-85
2022/02/03 10:18:42;;;;;;;;;;;9.40;99.90;;;7.56;100.00;100555.41;5046780;28;19925;-84
2022/02/03 10:21:14;;;;;;;;;;;9.40;99.90;;;7.59;100.00;100552.38;5046715;28;19929;-84
2022/02/03 10:23:57;;;;;;;;;;;9.40;99.90;;;7.58;100.00;100550.69;5046585;28;19925;-84
2022/02/03 10:26:33;;;;;;;;;;;9.50;99.90;;;7.67;100.00;100548.81;5045790;28;20403;-84
2022/02/03 10:29:01;;;;;;;;;;;9.50;99.90;;;7.72;100.00;100555.44;5048799;28;19962;-84
2022/02/03 10:31:35;;;;;;;;;;;9.50;99.90;;;7.72;100.00;100566.28;5050958;28;19932;-84
2022/02/03 10:34:07;;;;;;;;;;;9.50;99.90;;;7.72;100.00;100566.28;5051309;28;19986;-85
2022/02/03 10:36:48;;;;;;;;;;;9.50;99.90;;;7.62;100.00;100562.88;5053249;28;19935;-85
2022/02/03 10:42:24;;;;;;;;;;;9.50;99.90;;;7.70;100.00;100571.03;5045862;28;19929;-84
2022/02/03 10:45:09;;;;;;;;;;;9.50;99.90;;;7.59;100.00;100574.03;5046428;28;20019;-85
2022/02/03 10:53:33;;;;;;;;;;;9.50;99.90;;;7.59;100.00;100563.19;5037446;28;19929;-85
2022/02/03 10:56:18;;;;;;;;;;;9.50;99.90;;;7.60;100.00;100549.50;5044918;28;19937;-84
2022/02/03 10:59:10;;;;;;;;;;;9.50;99.90;;;7.55;100.00;100551.00;5045368;28;19936;-85
2022/02/03 11:01:48;;;;;;;;;;;9.50;99.90;;;7.48;100.00;100545.38;5047414;28;19933;-85
2022/02/03 11:07:03;;;;;;;;;;;9.40;99.90;;;7.42;100.00;100521.66;5049127;28;19933;-85
2022/02/03 11:12:20;;;;;;;;;;;9.40;99.90;;;7.40;100.00;100518.28;5039211;28;21465;-86
2022/02/03 11:14:48;;;;;;;;;;;9.40;99.90;;;7.49;100.00;100516.47;5045833;28;19939;-87
2022/02/03 11:17:17;;;;;;;;;;;9.40;99.90;;;7.41;100.00;100512.72;5048694;28;21071;-85
2022/02/03 11:19:48;;;;;;;;;;;9.40;99.90;;;7.38;100.00;100507.59;5042130;28;19944;-86
2022/02/03 11:22:21;;;;;;;;;;;9.40;99.90;;;7.37;100.00;100511.34;5044398;28;20016;-86
2022/02/03 11:25:00;;;;;;;;;;;9.40;99.90;;;7.35;100.00;100510.66;5045914;28;19933;-86
2022/02/03 11:27:38;;;;;;;;;;;9.30;99.90;;;7.35;100.00;100507.94;5044071;28;19936;-86
2022/02/03 11:33:11;;;;;;;;;;;9.30;99.90;;;7.35;100.00;100507.94;5043117;28;20285;-87
2022/02/03 11:41:48;;;;;;;;;;;9.20;99.90;;;7.26;100.00;100513.50;5039493;28;19928;-86
2022/02/03 11:44:32;;;;;;;;;;;9.20;99.90;;;7.24;100.00;100510.97;5041614;28;19929;-85
2022/02/03 11:47:29;;;;;;;;;;;9.20;99.90;;;7.23;100.00;100512.81;5048998;28;19928;-86
2022/02/03 11:50:19;;;;;;;;;;;9.20;99.90;;;7.21;100.00;100514.81;5047798;28;20406;-85
2022/02/03 11:56:10;;;;;;;;;;;9.20;99.90;;;7.15;100.00;100511.94;5012151;28;20395;-86
2022/02/03 12:05:05;;;;;;;;;;;9.10;99.90;;;7.00;100.00;100496.28;5043762;28;19928;-86
2022/02/03 12:11:06;;;;;;;;;;;9.10;99.90;;;7.00;100.00;100493.59;5027379;28;19928;-85
2022/02/03 12:16:57;;;;;;;;;;;9.00;99.90;;;6.99;100.00;100474.84;5051766;28;20602;-88
2022/02/03 12:19:29;;;;;;;;;;;9.00;99.90;;;7.00;100.00;100487.34;5049015;28;19929;-86
2022/02/03 12:22:10;;;;;;;;;;;9.00;99.90;;;6.95;100.00;100477.00;5046616;28;19925;-86
2022/02/03 12:24:48;;;;;;;;;;;9.00;99.90;;;6.91;100.00;100472.94;5046456;28;19975;-86
2022/02/03 12:27:31;;;;;;;;;;;9.00;99.90;;;6.85;100.00;100473.56;5046104;28;19928;-86
2022/02/03 12:30:03;;;;;;;;;;;9.00;99.90;;;6.81;100.00;100477.59;5050960;28;19939;-85
2022/02/03 12:33:04;;;;;;;;;;;8.90;99.90;;;6.84;100.00;100469.19;5052151;28;19928;-86
2022/02/03 12:38:27;;;;;;;;;;;8.90;99.90;;;6.89;100.00;100455.16;5044488;28;19933;-86
2022/02/03 12:40:56;;;;;;;;;;;8.90;99.90;;;6.86;100.00;100456.34;5044384;28;19935;-86
2022/02/03 12:43:33;;;;;;;;;;;8.90;99.90;;;6.90;100.00;100446.88;5054896;28;19928;-86
2022/02/03 12:46:02;;;;;;;;;;;8.90;99.90;;;6.84;100.00;100444.81;5045721;28;19933;-85
2022/02/03 12:48:31;;;;;;;;;;;8.90;99.90;;;6.82;100.00;100438.75;5053762;28;20561;-86
2022/02/03 12:50:59;;;;;;;;;;;8.90;99.90;;;6.87;100.00;100424.72;5049703;28;19994;-86
2022/02/03 12:53:31;;;;;;;;;;;8.90;99.90;;;6.77;100.00;100420.28;5051027;28;19928;-86
2022/02/03 12:55:58;;;;;;;;;;;8.90;99.90;;;6.82;100.00;100419.81;5046007;28;19925;-86
2022/02/03 12:58:26;;;;;;;;;;;8.90;99.90;;;6.78;100.00;100419.28;5040695;28;19970;-86
2022/02/03 13:00:57;;;;;;;;;;;8.80;99.90;;;6.80;100.00;100416.41;5047480;28;19935;-86
2022/02/03 13:03:31;;;;;;;;;;;8.90;99.90;;;6.78;100.00;100404.91;5047251;28;19939;-88
2022/02/03 13:06:03;;;;;;;;;;;8.90;99.90;;;6.88;100.00;100411.03;5047282;28;20443;-85
2022/02/03 13:08:38;;;;;;;;;;;8.90;99.90;;;6.88;100.00;100402.91;5046509;28;19928;-85
2022/02/03 13:11:11;;;;;;;;;;;8.90;99.90;;;6.85;100.00;100393.28;5047392;28;19929;-86
2022/02/03 13:13:51;;;;;;;;;;;8.90;99.90;;;6.95;100.00;100390.44;5049070;28;20457;-86
2022/02/03 13:16:18;;;;;;;;;;;8.90;99.90;;;6.88;100.00;100394.78;5053360;28;19924;-86
2022/02/03 13:18:59;;;;;;;;;;;8.80;99.90;;;6.84;100.00;100393.44;5049508;28;19978;-86
2022/02/03 13:21:37;;;;;;;;;;;8.80;99.90;;;6.84;100.00;100386.16;5047916;28;20032;-86
2022/02/03 13:24:20;;;;;;;;;;;8.80;99.90;;;6.83;100.00;100384.47;5053693;28;19932;-86
2022/02/03 13:26:47;;;;;;;;;;;8.80;99.90;;;6.79;100.00;100393.91;5050452;28;20116;-86
2022/02/03 13:29:21;;;;;;;;;;;8.80;99.90;;;6.80;100.00;100379.38;5046488;28;19971;-86
2022/02/03 13:31:53;;;;;;;;;;;8.80;99.90;;;6.81;100.00;100382.94;5047287;28;19928;-86
2022/02/03 13:34:31;;;;;;;;;;;8.80;99.90;;;6.80;100.00;100383.97;5045490;28;19932;-89
2022/02/03 13:37:14;;;;;;;;;;;8.80;99.90;;;6.77;100.00;100384.28;5046158;28;20031;-88
2022/02/03 13:39:46;;;;;;;;;;;8.80;99.90;;;6.80;100.00;100387.50;5052030;28;19936;-88
2022/02/03 13:42:14;;;;;;;;;;;8.80;99.90;;;6.80;100.00;100383.97;5048591;28;19929;-88
2022/02/03 13:44:41;;;;;;;;;;;8.80;99.90;;;6.83;100.00;100394.44;5045310;28;19934;-90
2022/02/03 13:47:22;;;;;;;;;;;8.80;99.90;;;6.85;100.00;100387.00;5044311;28;19987;-90
2022/02/03 13:50:09;;;;;;;;;;;8.80;99.90;;;6.85;100.00;100387.88;5052831;28;19929;-87
2022/02/03 13:52:47;;;;;;;;;;;8.80;99.90;;;6.90;100.00;100386.53;5051153;28;20339;-86
2022/02/03 14:15:19;;;;;;;;;;;8.90;99.90;;;7.07;100.00;100361.19;5050507;28;19928;-86
2022/02/03 14:18:07;;;;;;;;;;;8.90;99.90;;;6.95;100.00;100360.66;5044896;28;19929;-86
2022/02/03 14:20:46;;;;;;;;;;;9.00;99.90;;;6.94;100.00;100350.84;5046915;28;20023;-86
2022/02/03 14:28:46;;;;;;;;;;;9.00;99.90;;;7.06;100.00;100343.25;5042919;28;19998;-87
2022/02/03 14:31:13;;;;;;;;;;;9.00;99.90;;;6.99;100.00;100339.53;5043226;28;19936;-86
2022/02/03 14:33:41;;;;;;;;;;;9.00;99.90;;;7.04;100.00;100343.44;5046681;28;20024;-83
2022/02/03 14:36:11;;;;;;;;;;;9.00;99.90;;;7.08;100.00;100340.41;5049992;28;19929;-80
2022/02/03 14:38:46;;;;;;;;;;;9.00;99.90;;;7.02;100.00;100342.75;5045987;28;20400;-90
2022/02/03 14:41:22;;;;;;;;;;;9.00;99.90;;;7.14;100.00;100337.00;5045840;28;20392;-87
2022/02/03 14:43:50;;;;;;;;;;;9.00;99.90;;;7.27;100.00;100333.81;5051816;28;20394;-87
2022/02/03 14:46:17;;;;;;;;;;;9.00;99.90;;;7.26;100.00;100324.03;5047522;28;19933;-88
2022/02/03 14:48:46;;;;;;;;;;;9.00;99.90;;;7.14;100.00;100320.78;5044034;28;20030;-89
2022/02/03 14:51:17;;;;;;;;;;;9.00;99.90;;;7.12;100.00;100311.97;5042789;28;19932;-87
2022/02/03 14:53:55;;;;;;;;;;;9.00;99.90;;;7.07;100.00;100325.19;5044150;28;20035;-87
2022/02/03 14:59:20;;;;;;;;;;;9.00;99.90;;;7.06;100.00;100313.50;4992795;28;19956;-85
2022/02/03 15:01:47;;;;;;;;;;;9.00;99.90;;;7.12;100.00;100317.41;5032238;28;20359;-86
2022/02/03 15:04:24;;;;;;;;;;;9.00;99.90;;;7.04;100.00;100305.56;5047145;28;20615;-87
2022/02/03 15:06:57;;;;;;;;;;;9.00;99.90;;;7.03;100.00;100303.03;5051151;28;19982;-85
2022/02/03 15:09:48;;;;;;;;;;;9.00;99.90;;;7.03;100.00;100297.63;5049390;28;19939;-86
2022/02/03 15:12:37;;;;;;;;;;;9.00;99.90;;;6.95;100.00;100289.47;5044969;28;19935;-85
2022/02/03 15:15:05;;;;;;;;;;;9.00;99.90;;;6.85;100.00;100303.16;5045611;28;20023;-85
2022/02/03 15:17:35;;;;;;;;;;;9.00;99.90;;;6.80;100.00;100292.84;5046121;28;19928;-85
2022/02/03 15:20:03;;;;;;;;;;;8.90;99.90;;;6.75;100.00;100297.88;5049620;28;19929;-86
2022/02/03 15:22:30;;;;;;;;;;;8.90;99.90;;;6.84;100.00;100293.34;5044767;28;19933;-86
2022/02/03 15:25:02;;;;;;;;;;;8.90;99.90;;;6.90;100.00;100294.53;5045578;28;19928;-86
2022/02/03 15:27:31;;;;;;;;;;;8.90;99.90;;;6.84;100.00;100287.94;5046749;28;19944;-86
2022/02/03 15:30:02;;;;;;;;;;;8.90;99.90;;;6.90;100.00;100289.13;5045282;28;19932;-86
2022/02/03 15:32:37;;;;;;;;;;;8.90;99.90;;;6.92;100.00;100287.94;5046304;28;19925;-86
2022/02/03 15:35:08;;;;;;;;;;;8.90;99.90;;;6.87;100.00;100284.88;5043845;28;19933;-86
2022/02/03 15:37:35;;;;;;;;;;;8.90;99.90;;;6.92;100.00;100279.84;5043590;28;19928;-85
2022/02/03 15:40:07;;;;;;;;;;;8.80;99.90;;;6.85;100.00;100273.38;5045332;28;19966;-85
2022/02/03 15:42:40;;;;;;;;;;;8.80;99.90;;;6.82;100.00;100276.44;5046173;28;20455;-85
2022/02/03 15:45:08;;;;;;;;;;;8.80;99.90;;;6.82;100.00;100274.56;5050825;28;19933;-86
2022/02/03 15:47:40;;;;;;;;;;;8.80;99.90;;;6.84;100.00;100274.41;5046106;28;19983;-85
2022/02/03 15:56:25;;;;;;;;;;;8.80;99.90;;;6.81;100.00;100264.75;5109194;27;20398;-81
2022/02/03 16:18:07;;;;;;;;;;;8.80;99.90;;;6.68;100.00;100260.84;5089597;28;19928;-86
2022/02/03 16:20:39;;;;;;;;;;;8.80;99.90;;;6.64;100.00;100255.78;5095473;28;20391;-87
2022/02/03 16:23:28;;;;;;;;;;;8.70;99.90;;;6.65;100.00;100259.34;5094448;28;19928;-88
2022/02/03 16:51:01;;;;;;;;;;;8.60;99.90;;;6.69;100.00;100259.84;5087190;28;19981;-86
2022/02/03 16:53:28;;;;;;;;;;;8.60;99.90;;;6.76;100.00;100263.56;5095929;28;20048;-86
2022/02/03 16:55:57;;;;;;;;;;;8.60;99.90;;;6.73;100.00;100255.81;5098141;28;20399;-86
2022/02/03 16:58:29;;;;;;;;;;;8.60;99.90;;;6.69;100.00;100273.38;5094798;28;19932;-86
2022/02/03 17:00:59;;;;;;;;;;;8.60;99.90;;;6.65;100.00;100268.28;5104520;27;19976;-83
2022/02/03 17:03:26;;;;;;;;;;;8.60;99.90;;;6.73;100.00;100263.91;5091145;28;19932;-89
2022/02/03 17:05:54;;;;;;;;;;;8.60;99.90;;;6.71;100.00;100265.94;5086089;28;20392;-85
2022/02/03 17:08:25;;;;;;;;;;;8.60;99.90;;;6.71;100.00;100260.53;5076793;28;19959;-85
2022/02/03 17:10:52;;;;;;;;;;;8.60;99.90;;;6.72;100.00;100257.66;5076268;28;19963;-85
2022/02/03 17:13:20;;;;;;;;;;;8.60;99.90;;;6.63;100.00;100256.78;5077589;28;20020;-86
2022/02/03 17:15:48;;;;;;;;;;;8.60;99.90;;;6.65;100.00;100262.88;5076628;28;19954;-85
2022/02/03 17:18:16;;;;;;;;;;;8.60;99.90;;;6.65;100.00;100262.88;5081104;28;19936;-85
2022/02/03 17:20:43;;;;;;;;;;;8.60;99.90;;;6.64;100.00;100263.03;5099270;27;19934;-86
2022/02/03 17:23:16;;;;;;;;;;;8.60;99.90;;;6.58;100.00;100261.84;5079304;28;20015;-86
2022/02/03 17:25:49;;;;;;;;;;;8.60;99.90;;;6.59;100.00;100270.81;5076029;28;20392;-86
2022/02/03 17:28:20;;;;;;;;;;;8.60;99.90;;;6.70;100.00;100264.22;5072035;28;19959;-85
2022/02/03 17:30:54;;;;;;;;;;;8.60;99.90;;;6.77;100.00;100265.28;5075440;28;20455;-86
2022/02/03 17:45:54;;;;;;;;;;;8.60;99.90;;;6.64;100.00;100255.78;5083661;28;20093;-88
2022/02/03 18:10:10;;;;;;;;;;;8.60;99.90;;;6.48;100.00;100263.00;5080280;28;19932;-89
2022/02/03 18:32:41;;;;;;;;;;;8.50;99.90;;;6.52;100.00;100269.78;5064795;28;19959;-88
2022/02/03 18:35:29;;;;;;;;;;;8.50;99.90;;;6.57;100.00;100260.16;5085730;28;20294;-89
2022/02/03 18:47:10;;;;;;;;;;;8.50;99.90;;;6.43;100.00;100268.88;5087179;28;20388;-91